Etusivu
METAR-TAF:

METAR-TAF

Lentoasemat :

Sindal, Tanska

Leveyspiiri: 57-30N, Pituuspiiri: 010-13E, korkeus merenpinnasta: 28 m

Tämänhetkinen sää

Tämä raportti tehtiin 15 tuntia ja 7 minuuttia sitten, kello 13.50 UTC
Tuuli 11 kn lännestä
Lämpötila 17°C
Kosteus 68%
Ilmanpaine 1020 hPa
Näkyvyys 10 km tai enemmän
ei pilviä alle 1500 m:ssä eikä cumulonimbus-pilviä

METAR: EKSN 221350Z 26011KT CAVOK 17/11 Q1020

Aika: 06:57 (04:57 UTC)

Sääennuste

Tämä raportti tehtiin 19 tuntia ja 56 minuuttia sitten, kello 09.01 UTC
Ennuste voimassa 22. päivästä klo 09 UTC - 22. päivään klo 15 UTC
Tuuli 10 kn lännestä
Näkyvyys 10 km tai enemmän
Hajonneita pilviä 900 ft:n korkeudessa
Tulossa
22. päivästä klo 09 UTC - 22. päivään klo 10 UTC
Muutamia pilviä 4000 ft:n korkeudessa

TAF: EKSN 220901Z 2209/2215 27010KT 9999 BKN009 BECMG 2209/2210 FEW040

Säähavainnot ja -ennusteet yli 4000 lentoasemalta (METAR- ja TAF-raportit).

Käytössä olevat sääasemat on merkitty karttaan keltaisilla ja punaisilla pisteillä.

Aseta hiiri pisteen päälle nähdäksesi sääaseman nimen.

Klikkaa sitten nähdäksesi säähavainnot ja -ennusteet.

Kartan vaihtaminen: klikkaa mustalla rastilla varustettuja vihreitä pisteitä, niin voit zoomata sisään; viivalla varustettua vihreää pistettä, niin voit zoomata ulos tai vihreitä nuolia, niin pääset viereisille kartoille.


METAR-TAF: